Yachats, OR (97498)

8:16 PM PST on February 13, 2016 (GMT -0800)
APRSWXNET | | Change Station
CLOSE
Current Station
Personal Weather Station
Location: Yachats, OR
Elevation: 32 ft
Nearby Weather Stations

Elev 32 ft 44.32 °N, 124.11 °W | Updated 21 minutes ago

Rain
Rain
50 °F
Feels Like 44 °F
N
19
Wind Variable Wind from SSE
Gusts 0.0 mph

Today
High -- | Low -- °F
--% Chance of Precip.
Yesterday
High -- | Low -- °F
Precip. -- in
Pressure 30.23 in
Visibility 3.0 miles
Clouds Mostly Cloudy 800 ft
Overcast 1600 ft
Windchill 44 °F
Dew Point 47 °F
Humidity 91%
Rainfall in
Snow Depth Not available.
7:19 AM 5:42 PM
Waxing Crescent, 37% visible
METAR KONP 140355Z AUTO 19021G33KT 3SM RA BKN008 OVC016 10/09 A3023 RMK AO2 P0006
Pressure 30.23 in
Visibility 3.0 miles
Clouds Mostly Cloudy 800 ft
Overcast 1600 ft
Windchill 44 °F
Dew Point 47 °F
Humidity 91%
Rainfall in
Snow Depth Not available.
7:19 AM 5:42 PM
Waxing Crescent, 37% visible
METAR KONP 140355Z AUTO 19021G33KT 3SM RA BKN008 OVC016 10/09 A3023 RMK AO2 P0006

10-Day Weather Forecast

Almanac

Astronomy

Feb. 13, 2016 Rise Set
Actual Time
Civil Twilight
Nautical Twilight
Astronomical Twilight
Moon
Length of Visible Light
Length of Day
Tomorrow will be .
, % of the Moon is Illuminated

Today's Extremes

State Highs State Lows

Community

WunderPhotos

Upload Photos

1,892,743 photos uploaded!

WunderBlog® & News

Nearby

Air Quality

  Air Quality AQ Index Pollutant
Not available.

Snow Depth

Station Depth Elevation

Earthquake Activity

City Distance Mag. Time & Date
Minimum magnitude displayed is 2.5.

Coastal Water Temperatures

Place Temperature

Stations

Nearby Weather Stations

Station Location Temp. Windchill Dew Point Humidity Wind Precip. Elev Updated Type
                   

Watches & Warnings

There are currently no watches in effect.